createdAt,value
2022-10-19T00:01:30.956Z,3.30
2022-10-19T00:03:57.556Z,3.65
2022-10-19T00:06:26.874Z,3.05
2022-10-19T00:11:55.409Z,3.35
2022-10-19T00:14:23.578Z,3.33
2022-10-19T00:16:51.703Z,3.22
2022-10-19T00:19:23.978Z,2.92
2022-10-19T00:24:17.195Z,3.33
2022-10-19T00:26:43.759Z,3.40
2022-10-19T00:29:11.995Z,3.35
2022-10-19T00:31:38.748Z,3.42
2022-10-19T00:34:08.980Z,3.33
2022-10-19T00:36:40.175Z,3.60
2022-10-19T00:39:08.706Z,3.72
2022-10-19T00:41:37.580Z,3.38
2022-10-19T00:44:04.065Z,3.20
2022-10-19T00:46:33.091Z,3.60
2022-10-19T00:49:10.923Z,3.42
2022-10-19T00:51:40.334Z,3.40
2022-10-19T00:54:07.625Z,3.40
2022-10-19T00:56:36.953Z,3.47
2022-10-19T00:59:04.749Z,3.63
2022-10-19T01:01:33.024Z,3.42
2022-10-19T01:04:00.014Z,3.20
2022-10-19T01:06:26.876Z,3.55
2022-10-19T01:08:53.411Z,3.80
2022-10-19T01:11:29.132Z,4.22
2022-10-19T01:14:09.177Z,4.72
2022-10-19T01:16:42.247Z,5.20
2022-10-19T01:19:53.266Z,5.43
2022-10-19T01:23:10.225Z,5.40
2022-10-19T01:26:01.081Z,6.28
2022-10-19T01:28:52.152Z,6.88
2022-10-19T01:31:26.951Z,6.63
2022-10-19T01:34:02.433Z,6.72
2022-10-19T01:36:39.391Z,5.88
2022-10-19T01:39:10.895Z,6.47
2022-10-19T01:41:58.334Z,6.60
2022-10-19T01:44:35.246Z,6.50
2022-10-19T01:47:05.643Z,6.95
2022-10-19T01:49:32.076Z,6.40
2022-10-19T01:52:02.078Z,6.38
2022-10-19T01:54:30.876Z,7.05
2022-10-19T01:56:59.309Z,6.43
2022-10-19T01:59:26.343Z,5.75
2022-10-19T02:02:03.263Z,6.18
2022-10-19T02:04:30.933Z,5.95
2022-10-19T02:06:57.796Z,6.57
2022-10-19T02:09:25.655Z,5.93
2022-10-19T02:12:00.181Z,5.95
2022-10-19T02:14:34.055Z,5.75
2022-10-19T02:17:48.942Z,6.28
2022-10-19T02:20:22.858Z,5.57
2022-10-19T02:22:49.787Z,5.95
2022-10-19T02:25:20.744Z,5.68
2022-10-19T02:27:50.186Z,5.82
2022-10-19T02:30:20.405Z,6.70
2022-10-19T02:32:46.892Z,7.30
2022-10-19T02:35:18.312Z,8.30
2022-10-19T02:37:44.983Z,8.73
2022-10-19T02:40:11.915Z,8.77
2022-10-19T02:42:38.381Z,10.10
2022-10-19T02:45:13.387Z,9.00
2022-10-19T02:47:45.194Z,9.90
2022-10-19T02:50:19.136Z,9.70
2022-10-19T02:52:45.687Z,10.32
2022-10-19T02:55:12.205Z,9.05
2022-10-19T02:57:38.807Z,9.73
2022-10-19T03:00:07.169Z,10.18
2022-10-19T03:02:33.842Z,10.32
2022-10-19T03:05:00.460Z,9.30
2022-10-19T03:07:27.202Z,10.07
2022-10-19T03:09:56.801Z,9.65
2022-10-19T03:12:23.530Z,9.85
2022-10-19T03:14:50.277Z,9.57
2022-10-19T03:17:16.771Z,8.55
2022-10-19T03:19:43.326Z,7.15
2022-10-19T03:22:14.601Z,6.30
2022-10-19T03:24:41.197Z,5.72
2022-10-19T03:27:07.742Z,5.85
2022-10-19T03:29:36.425Z,6.20
2022-10-19T03:32:03.079Z,6.00
2022-10-19T03:34:29.629Z,6.15
2022-10-19T03:36:56.784Z,5.78
2022-10-19T03:39:23.317Z,6.15
2022-10-19T03:41:49.830Z,6.00
2022-10-19T03:44:19.643Z,5.82
2022-10-19T03:46:46.208Z,6.28
2022-10-19T03:49:14.257Z,7.07
2022-10-19T03:51:41.348Z,7.10
2022-10-19T03:54:12.594Z,7.38
2022-10-19T03:56:39.117Z,8.52
2022-10-19T03:59:12.494Z,9.20
2022-10-19T04:01:47.889Z,9.18
2022-10-19T04:04:17.015Z,10.05
2022-10-19T04:06:45.208Z,10.18
2022-10-19T04:09:14.856Z,15.88
2022-10-19T04:11:41.906Z,16.58
2022-10-19T04:16:36.198Z,19.85
2022-10-19T04:19:02.974Z,18.30
2022-10-19T04:21:31.517Z,17.80
2022-10-19T04:24:02.982Z,19.65
2022-10-19T04:26:29.978Z,22.60
2022-10-19T04:29:00.994Z,20.10
2022-10-19T04:31:29.315Z,23.58
2022-10-19T08:31:36.752Z,15.90
2022-10-19T08:34:03.957Z,38.10
2022-10-19T08:36:32.547Z,49.10
2022-10-19T08:38:59.212Z,45.80
2022-10-19T08:41:40.952Z,18.30
2022-10-19T08:44:38.466Z,14.18
2022-10-19T08:47:32.425Z,14.52
2022-10-19T08:50:00.042Z,16.88
2022-10-19T08:52:36.108Z,49.38
2022-10-19T08:55:09.119Z,93.40
2022-10-19T08:57:49.859Z,13.35
2022-10-19T09:00:36.995Z,13.30
2022-10-19T09:04:00.796Z,14.98
2022-10-19T09:06:31.866Z,16.92
2022-10-19T09:08:58.614Z,14.00
2022-10-19T09:11:28.295Z,14.60
2022-10-19T09:14:05.229Z,16.20
2022-10-19T09:16:33.024Z,17.05
2022-10-19T09:18:59.558Z,18.38
2022-10-19T09:21:45.951Z,13.85
2022-10-19T09:24:36.062Z,19.23
2022-10-19T09:27:03.440Z,15.23
2022-10-19T09:29:43.780Z,13.63
2022-10-19T09:32:15.494Z,12.80
2022-10-19T09:34:45.734Z,12.68
2022-10-19T09:37:18.872Z,11.50
2022-10-19T09:39:54.028Z,12.43
2022-10-19T09:42:22.411Z,9.73
2022-10-19T09:44:50.789Z,9.98
2022-10-19T09:47:29.532Z,11.90
2022-10-19T09:50:17.747Z,9.98
2022-10-19T09:52:46.482Z,11.00
2022-10-19T09:55:22.318Z,9.77
2022-10-19T09:57:51.360Z,11.43
2022-10-19T10:00:22.406Z,15.55
2022-10-19T10:02:53.986Z,18.20
2022-10-19T10:05:30.120Z,17.25
2022-10-19T10:07:59.497Z,10.68
2022-10-19T10:13:23.854Z,9.25
2022-10-19T10:15:55.648Z,9.35
2022-10-19T10:18:23.882Z,8.70
2022-10-19T10:23:26.323Z,8.77
2022-10-19T10:25:57.191Z,11.82
2022-10-19T10:28:29.712Z,22.63
2022-10-19T10:31:05.379Z,14.90
2022-10-19T10:33:50.605Z,16.25
2022-10-19T10:36:18.454Z,27.02
2022-10-19T10:38:47.595Z,13.43
2022-10-19T10:41:20.335Z,12.77
2022-10-19T10:43:56.696Z,14.35
2022-10-19T10:46:27.706Z,14.57
2022-10-19T10:48:59.151Z,21.75
2022-10-19T10:51:28.382Z,25.00
2022-10-19T10:54:09.292Z,10.82
2022-10-19T10:56:40.303Z,10.13
2022-10-19T10:59:17.481Z,14.00
2022-10-19T11:02:00.273Z,15.23
2022-10-19T11:04:35.137Z,11.57
2022-10-19T11:07:09.718Z,12.43
2022-10-19T11:09:38.792Z,17.23
2022-10-19T11:12:06.759Z,16.13
2022-10-19T11:14:39.222Z,17.50
2022-10-19T11:17:08.057Z,9.98
2022-10-19T11:19:42.144Z,9.77
2022-10-19T11:22:33.501Z,9.07
2022-10-19T11:25:22.099Z,11.88
2022-10-19T11:27:57.901Z,8.65
2022-10-19T11:30:25.318Z,7.90
2022-10-19T11:32:51.771Z,8.60
2022-10-19T11:35:40.070Z,7.95
2022-10-19T11:38:20.285Z,5.95
2022-10-19T11:41:17.393Z,8.00
2022-10-19T11:44:09.639Z,6.65
2022-10-19T11:46:58.998Z,6.97
2022-10-19T11:49:37.414Z,6.88
2022-10-19T11:52:16.044Z,7.38
2022-10-19T11:55:01.771Z,7.55
2022-10-19T11:57:45.284Z,8.70
2022-10-19T12:00:37.508Z,7.20
2022-10-19T12:03:27.271Z,8.35
2022-10-19T12:06:12.701Z,18.85
2022-10-19T12:08:56.393Z,9.85
2022-10-19T12:12:20.218Z,25.50
2022-10-19T12:14:49.166Z,14.38
2022-10-19T12:17:21.077Z,13.32
2022-10-19T12:20:01.470Z,7.18
2022-10-19T12:22:29.904Z,6.40
2022-10-19T12:24:59.167Z,6.63
2022-10-19T12:27:33.612Z,5.65
2022-10-19T12:30:15.487Z,5.22
2022-10-19T12:33:00.820Z,5.38
2022-10-19T12:35:55.936Z,4.70
2022-10-19T12:38:32.286Z,4.57
2022-10-19T12:41:07.470Z,4.38
2022-10-19T12:43:55.265Z,4.95
2022-10-19T12:46:58.782Z,5.45
2022-10-19T12:49:27.138Z,5.20
2022-10-19T12:51:55.863Z,4.97
2022-10-19T12:54:24.537Z,4.85
2022-10-19T12:56:53.686Z,4.97
2022-10-19T12:59:34.439Z,4.60
2022-10-19T13:02:02.877Z,5.05
2022-10-19T13:04:33.870Z,5.05
2022-10-19T13:07:08.070Z,4.95
2022-10-19T13:09:45.816Z,5.20
2022-10-19T13:12:25.633Z,5.30
2022-10-19T13:15:03.973Z,5.03
2022-10-19T13:17:38.228Z,5.05
2022-10-19T13:20:14.057Z,5.30
2022-10-19T13:22:46.759Z,6.10
2022-10-19T13:25:16.547Z,5.70
2022-10-19T13:27:44.688Z,6.22
2022-10-19T13:30:42.440Z,5.75
2022-10-19T13:33:37.708Z,6.45
2022-10-19T13:36:09.665Z,6.00
2022-10-19T13:38:57.346Z,5.78
2022-10-19T13:41:49.479Z,5.88
2022-10-19T13:44:20.112Z,5.72
2022-10-19T13:46:53.186Z,6.05
2022-10-19T13:49:47.459Z,6.00
2022-10-19T13:52:28.266Z,6.60
2022-10-19T13:55:31.855Z,6.40
2022-10-19T13:58:20.409Z,6.32
2022-10-19T14:00:56.057Z,6.10
2022-10-19T14:03:50.529Z,6.78
2022-10-19T14:07:11.687Z,6.32
2022-10-19T14:09:44.171Z,6.75
2022-10-19T14:12:26.462Z,6.68
2022-10-19T14:14:55.841Z,7.00
2022-10-19T14:17:30.161Z,7.50
2022-10-19T14:20:00.234Z,7.13
